NCAR-RAP Real-Time Weather Data

Output produced by METARs form (01 December 2020  17:33 UTC)
found at http://weather.rap.ucar.edu/surface/
 
KIND 011654Z 28014KT 10SM BKN039 M01/M06 A3005 RMK AO2 SLP183 T10061061
KIND 011554Z 28013KT 10SM BKN035 M02/M07 A3005 RMK AO2 SLP185 T10171067
KIND 011454Z 29013KT 10SM BKN040 M02/M07 A3002 RMK AO2 SLP175 T10171067 53017
KIND 011354Z 29013KT 10SM BKN040 M02/M06 A3000 RMK AO2 SLP168 T10221061
KIND 011254Z 30015G21KT 10SM FEW032 BKN044 M02/M07 A2999 RMK AO2 SLP162 T10221067
KIND 011154Z 30014G22KT 10SM FEW030 BKN044 OVC055 M02/M07 A2997 RMK AO2 SLP158 70006 T10221067 11011 21022 53008
KIND 011054Z 29015G20KT 10SM FEW025 OVC045 M02/M06 A2996 RMK AO2 SLP155 T10221061
KIND 010954Z 30015G21KT 10SM FEW025 OVC046 M02/M06 A2995 RMK AO2 SLP150 T10221061
KIND 010854Z 29014G23KT 10SM FEW024 OVC046 M02/M06 A2995 RMK AO2 SLP150 T10171061 53009
KIND 010832Z 29015G20KT 10SM SCT023 OVC044 M02/M06 A2995 RMK AO2 T10171061
KIND 010803Z 30016G23KT 10SM BKN022 OVC043 M01/M06 A2994 RMK AO2 T10111061
KIND 010754Z 30014G23KT 10SM SCT024 OVC043 M01/M06 A2994 RMK AO2 PK WND 30031/0740 SLP147 T10111061
KIND 010739Z 29021G31KT 10SM SCT024 OVC043 M01/M06 A2994 RMK AO2 PK WND 30031/0739 T10111061
KIND 010654Z 30016G26KT 10SM OVC024 M01/M06 A2992 RMK AO2 PK WND 31026/0650 SLP140 T10111056
KIND 010554Z 31015G26KT 10SM OVC023 M01/M06 A2992 RMK AO2 PK WND 31028/0505 SLP140 60000 T10111056 11011 21017 51001
KIND 010454Z 31017G26KT 10SM OVC021 M02/M06 A2992 RMK AO2 PK WND 31032/0355 SNE21 SLP139 P0000 T10171056 400611017
KIND 010354Z 31020G31KT 9SM -SN OVC017 M02/M04 A2992 RMK AO2 PK WND 31031/0354 SNB32 SLP139 P0000 T10171039
KIND 010254Z 30015G24KT 9SM BKN016 OVC040 M02/M04 A2992 RMK AO2 PK WND 30032/0201 SLP138 60000 T10171039 51007
KIND 010236Z 31017G28KT 9SM BKN019 OVC040 M02/M04 A2992 RMK AO2 PK WND 30032/0201 T10171039